Time;durP1;ratioP1;P1;durP2;ratioP2;P2;SDS_P1;SDS_P2;PMS_P1;PMS_P2;Temp;Humidity;BMP_temperature;BMP_pressure;BME280_temperature;BME280_humidity;BME280_pressure;Samples;Min_cycle;Max_cycle;Signal;HPM_P1;HPM_P2
2023/09/20 00:00:11;;;;;;;6.45;3.10;;;21.80;52.30;;;;;;352465;28;1087;-55
2023/09/20 00:00:25;;;;;;;7.18;3.20;;;21.70;52.30;;;;;;352517;28;1281;-55
2023/09/20 00:00:36;;;;;;;6.45;3.22;;;21.80;52.30;;;;;;352509;28;1120;-54
2023/09/20 00:00:47;;;;;;;5.25;2.85;;;21.80;52.30;;;;;;352542;28;888;-54
2023/09/20 00:00:57;;;;;;;5.93;2.60;;;21.80;52.30;;;;;;352571;28;943;-55
2023/09/20 00:01:08;;;;;;;6.00;2.63;;;21.80;52.40;;;;;;352596;28;792;-54
2023/09/20 00:01:19;;;;;;;5.65;2.72;;;21.70;52.40;;;;;;352478;28;971;-56
2023/09/20 00:01:31;;;;;;;5.07;2.83;;;21.70;52.40;;;;;;352489;28;1959;-54
2023/09/20 00:01:42;;;;;;;4.82;2.83;;;21.80;52.40;;;;;;352570;28;1181;-55
2023/09/20 00:01:53;;;;;;;4.47;2.72;;;21.70;52.40;;;;;;352535;28;998;-56
2023/09/20 00:02:04;;;;;;;4.40;2.78;;;21.70;52.40;;;;;;352452;28;1094;-55
2023/09/20 00:02:15;;;;;;;4.55;2.75;;;21.80;52.40;;;;;;352521;28;1069;-54
2023/09/20 00:02:26;;;;;;;6.40;3.20;;;21.80;52.40;;;;;;352570;28;960;-53
2023/09/20 00:02:40;;;;;;;6.82;3.40;;;21.80;52.40;;;;;;352520;28;1030;-54
2023/09/20 00:02:50;;;;;;;6.93;3.55;;;21.80;52.50;;;;;;352507;28;1167;-54
2023/09/20 00:03:01;;;;;;;5.78;3.40;;;21.70;52.50;;;;;;352606;28;931;-56
2023/09/20 00:03:12;;;;;;;5.00;3.15;;;21.80;52.60;;;;;;352550;28;1045;-53
2023/09/20 00:03:25;;;;;;;4.73;3.20;;;21.70;52.70;;;;;;352575;28;833;-55
2023/09/20 00:03:36;;;;;;;4.65;3.10;;;21.70;52.80;;;;;;352486;28;942;-53
2023/09/20 00:03:47;;;;;;;5.65;3.33;;;21.70;52.80;;;;;;352573;28;963;-56
2023/09/20 00:03:59;;;;;;;6.20;3.50;;;21.70;52.80;;;;;;352467;28;1735;-54
2023/09/20 00:04:09;;;;;;;7.90;3.85;;;21.70;52.80;;;;;;352547;28;1118;-53
2023/09/20 00:04:20;;;;;;;7.15;3.58;;;21.70;52.80;;;;;;352458;28;963;-55
2023/09/20 00:04:33;;;;;;;7.05;3.47;;;21.70;52.80;;;;;;352481;28;1336;-55
2023/09/20 00:04:44;;;;;;;5.85;3.40;;;21.70;52.80;;;;;;352580;28;1054;-53
2023/09/20 00:05:00;;;;;;;5.90;3.50;;;21.70;52.70;;;;;;352482;28;1402;-54
2023/09/20 00:05:15;;;;;;;6.15;3.58;;;21.70;52.70;;;;;;352546;28;1050;-54
2023/09/20 00:05:26;;;;;;;6.38;3.35;;;21.70;52.70;;;;;;352398;28;1137;-54
2023/09/20 00:05:39;;;;;;;6.80;3.38;;;21.70;52.60;;;;;;352574;28;1050;-53
2023/09/20 00:05:49;;;;;;;6.53;3.30;;;21.70;52.60;;;;;;352608;28;857;-54
2023/09/20 00:06:07;;;;;;;6.10;3.38;;;21.70;52.60;;;;;;352539;28;981;-53
2023/09/20 00:06:18;;;;;;;4.93;3.28;;;21.70;52.60;;;;;;352539;28;1118;-54
2023/09/20 00:06:28;;;;;;;5.07;3.23;;;21.70;52.70;;;;;;352472;28;875;-55
2023/09/20 00:06:39;;;;;;;5.28;3.28;;;21.70;52.70;;;;;;352407;28;1051;-54
2023/09/20 00:06:51;;;;;;;6.20;3.28;;;21.70;52.70;;;;;;352563;27;1082;-54
2023/09/20 00:07:02;;;;;;;5.47;3.20;;;21.70;52.70;;;;;;352576;28;963;-54
2023/09/20 00:07:13;;;;;;;4.65;3.17;;;21.70;52.80;;;;;;352465;28;1052;-53
2023/09/20 00:07:24;;;;;;;4.43;3.00;;;21.70;52.80;;;;;;352545;28;1130;-53
2023/09/20 00:07:34;;;;;;;5.15;3.25;;;21.80;52.80;;;;;;352458;28;1905;-54
2023/09/20 00:07:46;;;;;;;6.53;3.40;;;21.70;52.70;;;;;;352440;28;915;-53
2023/09/20 00:07:57;;;;;;;6.10;3.50;;;21.70;52.60;;;;;;352579;28;1034;-54
2023/09/20 00:08:08;;;;;;;5.57;3.05;;;21.70;52.60;;;;;;352541;28;1115;-54
2023/09/20 00:08:18;;;;;;;5.35;2.80;;;21.70;52.60;;;;;;352505;28;966;-54
2023/09/20 00:08:29;;;;;;;5.07;2.78;;;21.70;52.60;;;;;;352518;28;1077;-53
2023/09/20 00:08:40;;;;;;;5.87;3.07;;;21.70;52.60;;;;;;352536;28;960;-54
2023/09/20 00:08:50;;;;;;;5.80;3.30;;;21.70;52.70;;;;;;352498;28;1021;-54
2023/09/20 00:09:02;;;;;;;5.90;3.28;;;21.70;52.70;;;;;;352541;28;1197;-53
2023/09/20 00:09:15;;;;;;;6.05;3.00;;;21.70;52.70;;;;;;352517;27;1633;-53
2023/09/20 00:09:26;;;;;;;6.07;3.08;;;21.70;52.60;;;;;;352483;28;1051;-54
2023/09/20 00:09:38;;;;;;;6.50;3.35;;;21.70;52.50;;;;;;352537;28;951;-54
2023/09/20 00:09:48;;;;;;;5.95;3.30;;;21.70;52.50;;;;;;352611;28;876;-54
2023/09/20 00:10:00;;;;;;;5.93;3.03;;;21.70;52.50;;;;;;352547;28;873;-54
2023/09/20 00:10:14;;;;;;;6.05;2.92;;;21.70;52.60;;;;;;352548;28;1212;-54
2023/09/20 00:10:27;;;;;;;5.28;2.85;;;21.70;52.60;;;;;;352491;28;1019;-55
2023/09/20 00:10:37;;;;;;;5.25;2.88;;;21.70;52.60;;;;;;352605;28;1051;-53
2023/09/20 00:10:48;;;;;;;6.15;2.80;;;21.70;52.60;;;;;;352527;28;782;-55
2023/09/20 00:10:59;;;;;;;6.63;2.80;;;21.70;52.70;;;;;;352484;28;1824;-54
2023/09/20 00:11:15;;;;;;;6.80;2.88;;;21.70;52.70;;;;;;352497;28;1102;-54
2023/09/20 00:11:26;;;;;;;5.35;3.00;;;21.70;52.60;;;;;;352556;28;930;-53
2023/09/20 00:11:37;;;;;;;5.60;2.88;;;21.70;52.60;;;;;;352582;28;1062;-54
2023/09/20 00:11:47;;;;;;;4.97;2.80;;;21.70;52.70;;;;;;352529;28;1022;-53
2023/09/20 00:11:58;;;;;;;5.10;3.00;;;21.70;52.60;;;;;;352580;28;987;-53
2023/09/20 00:12:09;;;;;;;4.97;3.10;;;21.70;52.70;;;;;;352599;28;817;-53
2023/09/20 00:12:20;;;;;;;5.45;3.10;;;21.70;52.70;;;;;;352543;27;930;-53
2023/09/20 00:12:31;;;;;;;5.80;3.08;;;21.70;52.70;;;;;;352423;28;1027;-54
2023/09/20 00:12:43;;;;;;;6.13;3.15;;;21.70;52.70;;;;;;352508;28;1027;-54
2023/09/20 00:12:54;;;;;;;6.82;3.20;;;21.70;52.70;;;;;;352547;28;943;-54
2023/09/20 00:13:04;;;;;;;6.93;3.35;;;21.70;52.70;;;;;;352444;28;1003;-54
2023/09/20 00:13:15;;;;;;;7.07;3.37;;;21.60;52.70;;;;;;352463;28;909;-55
2023/09/20 00:13:26;;;;;;;6.55;3.53;;;21.70;52.70;;;;;;352555;28;971;-54
2023/09/20 00:13:37;;;;;;;6.85;3.63;;;21.60;52.70;;;;;;352479;28;1134;-55
2023/09/20 00:13:48;;;;;;;7.25;3.80;;;21.70;52.70;;;;;;352514;28;1512;-56
2023/09/20 00:13:59;;;;;;;7.30;3.55;;;21.60;52.70;;;;;;352620;28;825;-54
2023/09/20 00:14:10;;;;;;;7.22;3.70;;;21.70;52.70;;;;;;352345;28;1167;-54
2023/09/20 00:14:21;;;;;;;7.18;3.60;;;21.70;52.70;;;;;;352524;28;988;-54
2023/09/20 00:14:32;;;;;;;6.82;3.60;;;21.70;52.80;;;;;;352561;28;990;-53
2023/09/20 00:14:43;;;;;;;6.88;3.40;;;21.60;52.80;;;;;;352509;28;872;-54
2023/09/20 00:14:53;;;;;;;5.82;3.40;;;21.70;52.80;;;;;;352585;28;891;-53
2023/09/20 00:15:05;;;;;;;5.57;3.28;;;21.60;52.80;;;;;;352427;28;910;-53
2023/09/20 00:15:16;;;;;;;5.63;3.38;;;21.60;52.90;;;;;;352511;28;1094;-54
2023/09/20 00:15:30;;;;;;;5.95;3.30;;;21.70;52.90;;;;;;352564;28;868;-54
2023/09/20 00:15:40;;;;;;;6.47;3.50;;;21.60;52.90;;;;;;352473;28;1154;-54
2023/09/20 00:15:55;;;;;;;6.80;3.53;;;21.60;53.00;;;;;;352391;28;1170;-54
2023/09/20 00:16:06;;;;;;;7.20;3.47;;;21.60;53.10;;;;;;352565;28;1036;-54
2023/09/20 00:16:17;;;;;;;7.28;3.50;;;21.60;53.10;;;;;;352528;28;980;-54
2023/09/20 00:16:29;;;;;;;6.82;3.53;;;21.60;53.20;;;;;;352430;28;1034;-54
2023/09/20 00:16:40;;;;;;;7.47;3.45;;;21.60;53.10;;;;;;352441;28;1034;-54
2023/09/20 00:16:52;;;;;;;7.70;3.70;;;21.70;53.10;;;;;;352585;28;963;-54
2023/09/20 00:17:03;;;;;;;7.45;3.60;;;21.60;53.10;;;;;;352530;28;951;-54
2023/09/20 00:17:14;;;;;;;6.05;3.30;;;21.70;53.10;;;;;;352537;28;907;-53
2023/09/20 00:17:24;;;;;;;5.87;3.27;;;21.70;53.10;;;;;;352417;28;1074;-54
2023/09/20 00:17:36;;;;;;;5.55;3.30;;;21.60;53.00;;;;;;352479;28;1460;-55
2023/09/20 00:17:48;;;;;;;6.40;3.58;;;21.60;53.10;;;;;;352530;28;987;-54
2023/09/20 00:17:59;;;;;;;6.40;3.30;;;21.70;53.10;;;;;;352564;28;975;-55
2023/09/20 00:18:10;;;;;;;5.57;3.33;;;21.70;53.10;;;;;;352461;28;1042;-55
2023/09/20 00:18:24;;;;;;;6.57;3.55;;;21.60;53.10;;;;;;352572;28;1853;-55
2023/09/20 00:18:36;;;;;;;8.50;3.95;;;21.60;53.00;;;;;;352543;28;863;-54
2023/09/20 00:18:47;;;;;;;7.82;3.88;;;21.60;53.00;;;;;;352584;28;1003;-54
2023/09/20 00:18:58;;;;;;;6.17;3.60;;;21.70;52.90;;;;;;352422;28;979;-54
2023/09/20 00:19:08;;;;;;;5.88;3.67;;;21.70;52.90;;;;;;352562;28;1011;-54
2023/09/20 00:19:19;;;;;;;6.00;3.70;;;21.70;52.90;;;;;;352501;28;1038;-54
2023/09/20 00:19:30;;;;;;;6.53;3.97;;;21.70;52.90;;;;;;352526;28;1054;-54
2023/09/20 00:19:42;;;;;;;7.60;4.05;;;21.70;52.90;;;;;;352442;28;1074;-54
2023/09/20 00:19:53;;;;;;;7.53;4.00;;;21.70;52.90;;;;;;352534;28;2516;-56
2023/09/20 00:20:06;;;;;;;7.45;3.85;;;21.70;52.90;;;;;;352416;28;1882;-54
2023/09/20 00:20:16;;;;;;;6.97;3.70;;;21.70;52.80;;;;;;352494;28;991;-54
2023/09/20 00:20:27;;;;;;;7.80;3.70;;;21.70;52.90;;;;;;352380;28;1111;-54
2023/09/20 00:20:39;;;;;;;7.05;3.70;;;21.70;52.80;;;;;;352539;28;879;-53
2023/09/20 00:20:51;;;;;;;6.63;3.72;;;21.60;52.80;;;;;;352433;28;1138;-54
2023/09/20 00:21:02;;;;;;;5.72;3.47;;;21.60;52.90;;;;;;352569;28;978;-54
2023/09/20 00:21:13;;;;;;;5.85;3.38;;;21.70;52.90;;;;;;352450;28;1450;-55
2023/09/20 00:21:24;;;;;;;5.55;3.15;;;21.70;52.90;;;;;;352426;28;1102;-55
2023/09/20 00:21:34;;;;;;;7.10;3.55;;;21.60;52.90;;;;;;352595;28;842;-56
2023/09/20 00:21:46;;;;;;;7.43;3.60;;;21.70;52.90;;;;;;352553;28;1030;-54
2023/09/20 00:21:57;;;;;;;6.50;3.70;;;21.60;52.90;;;;;;352492;28;1100;-54
2023/09/20 00:22:10;;;;;;;5.88;3.60;;;21.70;52.90;;;;;;352459;28;1624;-54
2023/09/20 00:22:22;;;;;;;5.05;3.42;;;21.60;52.90;;;;;;352450;28;1138;-55
2023/09/20 00:22:33;;;;;;;4.95;3.20;;;21.60;52.90;;;;;;352547;28;849;-54
2023/09/20 00:22:45;;;;;;;5.13;3.15;;;21.60;53.00;;;;;;352562;28;987;-54
2023/09/20 00:22:55;;;;;;;6.25;3.20;;;21.60;53.10;;;;;;352457;28;881;-54
2023/09/20 00:23:07;;;;;;;7.28;3.40;;;21.60;53.20;;;;;;352429;28;1407;-54
2023/09/20 00:23:21;;;;;;;6.80;3.22;;;21.60;53.20;;;;;;352483;28;954;-55
2023/09/20 00:23:32;;;;;;;7.90;3.45;;;21.60;53.30;;;;;;352513;28;1119;-54
2023/09/20 00:23:43;;;;;;;6.90;3.60;;;21.60;53.30;;;;;;352448;28;1039;-55
2023/09/20 00:23:55;;;;;;;5.75;3.40;;;21.60;53.30;;;;;;352548;28;832;-53
2023/09/20 00:24:06;;;;;;;5.55;3.33;;;21.60;53.20;;;;;;352490;28;1023;-53
2023/09/20 00:24:16;;;;;;;6.72;3.30;;;21.60;53.20;;;;;;352437;28;1587;-55
2023/09/20 00:24:27;;;;;;;7.03;3.35;;;21.70;53.30;;;;;;352425;28;1098;-54
2023/09/20 00:24:38;;;;;;;7.13;3.42;;;21.60;53.40;;;;;;352488;28;983;-54
2023/09/20 00:24:48;;;;;;;5.80;3.30;;;21.60;53.40;;;;;;352410;28;1291;-54
2023/09/20 00:24:59;;;;;;;5.35;3.60;;;21.60;53.40;;;;;;352506;28;967;-54
2023/09/20 00:25:11;;;;;;;5.05;3.60;;;21.60;53.40;;;;;;352517;28;1430;-54
2023/09/20 00:25:22;;;;;;;5.35;3.83;;;21.60;53.40;;;;;;352517;28;1010;-54
2023/09/20 00:25:33;;;;;;;5.85;3.58;;;21.60;53.40;;;;;;352314;28;1634;-55
2023/09/20 00:25:44;;;;;;;6.30;3.72;;;21.60;53.40;;;;;;352557;28;1926;-53
2023/09/20 00:25:55;;;;;;;6.43;3.72;;;21.60;53.40;;;;;;352452;28;1090;-55
2023/09/20 00:26:06;;;;;;;5.90;3.60;;;21.60;53.30;;;;;;352542;28;1066;-53
2023/09/20 00:26:18;;;;;;;4.93;3.17;;;21.60;53.20;;;;;;352461;27;967;-54
2023/09/20 00:26:28;;;;;;;4.75;2.78;;;21.60;53.20;;;;;;352528;28;1106;-54
2023/09/20 00:26:39;;;;;;;5.43;2.90;;;21.60;53.20;;;;;;352535;28;805;-54
2023/09/20 00:26:50;;;;;;;6.35;3.08;;;21.60;53.20;;;;;;352458;28;1058;-53
2023/09/20 00:27:00;;;;;;;5.47;3.20;;;21.60;53.20;;;;;;352435;28;1027;-53
2023/09/20 00:27:11;;;;;;;4.70;3.00;;;21.70;53.20;;;;;;352583;28;1070;-55
2023/09/20 00:27:22;;;;;;;3.97;2.88;;;21.60;53.10;;;;;;352497;28;1094;-55
2023/09/20 00:27:33;;;;;;;4.78;2.90;;;21.60;53.00;;;;;;352392;28;1910;-54
2023/09/20 00:27:46;;;;;;;5.65;3.10;;;21.60;52.90;;;;;;352452;28;1449;-53
2023/09/20 00:27:57;;;;;;;5.63;3.20;;;21.60;52.80;;;;;;352559;28;991;-54
2023/09/20 00:28:08;;;;;;;5.18;3.17;;;21.70;52.80;;;;;;352462;28;1135;-55
2023/09/20 00:28:18;;;;;;;6.05;3.15;;;21.70;52.70;;;;;;352484;28;1418;-53
2023/09/20 00:28:31;;;;;;;5.72;3.10;;;21.60;52.60;;;;;;352544;28;1049;-54
2023/09/20 00:28:43;;;;;;;6.78;3.17;;;21.70;52.60;;;;;;352598;28;868;-54
2023/09/20 00:28:54;;;;;;;6.10;3.45;;;21.70;52.60;;;;;;352511;28;1170;-54
2023/09/20 00:29:05;;;;;;;5.47;3.40;;;21.70;52.60;;;;;;352595;28;807;-53
2023/09/20 00:29:16;;;;;;;5.55;3.50;;;21.70;52.50;;;;;;352474;28;971;-54
2023/09/20 00:29:27;;;;;;;5.50;3.33;;;21.70;52.50;;;;;;352509;28;1077;-55
2023/09/20 00:29:38;;;;;;;5.80;3.25;;;21.70;52.50;;;;;;352524;28;1027;-54
2023/09/20 00:29:49;;;;;;;6.57;3.25;;;21.70;52.50;;;;;;352583;28;876;-55
2023/09/20 00:30:00;;;;;;;6.70;3.30;;;21.70;52.50;;;;;;352465;28;940;-53
2023/09/20 00:30:14;;;;;;;6.70;3.50;;;21.70;52.40;;;;;;352487;28;1046;-53
2023/09/20 00:30:24;;;;;;;7.20;3.75;;;21.70;52.40;;;;;;352482;28;950;-53
2023/09/20 00:30:35;;;;;;;6.90;3.83;;;21.70;52.30;;;;;;352506;28;998;-54
2023/09/20 00:30:47;;;;;;;5.40;3.60;;;21.70;52.20;;;;;;352459;28;1045;-54
2023/09/20 00:30:58;;;;;;;5.45;3.33;;;21.70;52.10;;;;;;352528;28;1174;-54
2023/09/20 00:31:09;;;;;;;5.32;3.08;;;21.70;52.10;;;;;;352508;28;1338;-54
2023/09/20 00:31:20;;;;;;;4.72;3.00;;;21.70;52.20;;;;;;352531;28;1042;-53
2023/09/20 00:31:34;;;;;;;4.88;3.10;;;21.70;52.20;;;;;;352538;28;1055;-54
2023/09/20 00:31:45;;;;;;;5.00;3.08;;;21.70;52.20;;;;;;352488;28;1254;-53
2023/09/20 00:31:55;;;;;;;4.93;3.00;;;21.70;52.20;;;;;;352452;28;1162;-54
2023/09/20 00:32:07;;;;;;;5.23;2.93;;;21.70;52.10;;;;;;352411;28;916;-54
2023/09/20 00:32:17;;;;;;;5.22;3.00;;;21.70;51.90;;;;;;352542;28;1181;-54
2023/09/20 00:32:30;;;;;;;5.00;2.80;;;21.70;51.60;;;;;;352516;28;1103;-53
2023/09/20 00:32:42;;;;;;;5.25;2.60;;;21.70;51.50;;;;;;352565;28;923;-54
2023/09/20 00:32:53;;;;;;;5.53;2.75;;;21.70;51.60;;;;;;352523;28;1139;-54
2023/09/20 00:33:05;;;;;;;5.95;3.05;;;21.70;51.70;;;;;;352416;28;1002;-55
2023/09/20 00:33:15;;;;;;;6.18;3.05;;;21.70;51.90;;;;;;352550;27;1039;-54
2023/09/20 00:33:29;;;;;;;6.40;3.00;;;21.70;52.00;;;;;;352455;28;1372;-53
2023/09/20 00:33:40;;;;;;;5.82;3.13;;;21.70;52.10;;;;;;352502;28;991;-54
2023/09/20 00:33:52;;;;;;;7.05;3.47;;;21.70;52.20;;;;;;352503;28;1059;-53
2023/09/20 00:34:03;;;;;;;6.00;3.17;;;21.70;52.20;;;;;;352427;28;1034;-53
2023/09/20 00:34:14;;;;;;;6.10;3.22;;;21.70;52.10;;;;;;352509;27;1117;-54
2023/09/20 00:34:26;;;;;;;5.18;3.20;;;21.70;52.10;;;;;;352253;28;1341;-54
2023/09/20 00:34:37;;;;;;;5.63;3.03;;;21.70;52.10;;;;;;352536;28;1046;-53
2023/09/20 00:34:48;;;;;;;5.82;2.70;;;21.70;52.10;;;;;;352487;28;956;-54
2023/09/20 00:34:59;;;;;;;6.07;2.70;;;21.70;52.20;;;;;;352490;27;972;-54
2023/09/20 00:35:14;;;;;;;6.00;2.77;;;21.70;52.20;;;;;;352546;28;1018;-53
2023/09/20 00:35:25;;;;;;;5.13;2.72;;;21.70;52.20;;;;;;352471;28;980;-54
2023/09/20 00:35:39;;;;;;;6.60;2.87;;;21.70;52.10;;;;;;352503;28;1031;-53
2023/09/20 00:35:50;;;;;;;6.40;2.88;;;21.70;52.00;;;;;;352473;28;1816;-54
2023/09/20 00:36:00;;;;;;;4.13;2.58;;;21.70;51.90;;;;;;352458;28;1120;-53
2023/09/20 00:36:20;;;;;;;4.03;2.53;;;21.70;51.70;;;;;;352484;28;1023;-54
2023/09/20 00:36:31;;;;;;;4.85;2.50;;;21.70;51.50;;;;;;352476;28;1038;-54
2023/09/20 00:36:44;;;;;;;5.72;2.55;;;21.70;51.50;;;;;;352384;28;1070;-54
2023/09/20 00:36:54;;;;;;;4.75;2.63;;;21.70;51.50;;;;;;352504;28;1107;-54
2023/09/20 00:37:05;;;;;;;4.45;2.53;;;21.70;51.50;;;;;;352460;28;1166;-54
2023/09/20 00:37:16;;;;;;;4.57;2.65;;;21.70;51.40;;;;;;352488;28;1310;-53
2023/09/20 00:37:27;;;;;;;4.70;2.80;;;21.70;51.40;;;;;;352448;28;1031;-54
2023/09/20 00:37:42;;;;;;;4.20;2.67;;;21.70;51.40;;;;;;352464;28;914;-53
2023/09/20 00:37:52;;;;;;;3.83;2.50;;;21.70;51.40;;;;;;352563;28;848;-53
2023/09/20 00:38:03;;;;;;;4.25;2.67;;;21.70;51.40;;;;;;352484;28;931;-53
2023/09/20 00:38:18;;;;;;;4.75;2.70;;;21.70;51.30;;;;;;352525;28;944;-54
2023/09/20 00:38:28;;;;;;;4.50;2.47;;;21.70;51.40;;;;;;352460;28;967;-53
2023/09/20 00:38:39;;;;;;;4.15;2.35;;;21.70;51.30;;;;;;352406;28;1103;-54
2023/09/20 00:38:52;;;;;;;4.40;2.50;;;21.70;51.30;;;;;;352485;28;896;-53
2023/09/20 00:39:03;;;;;;;5.47;2.67;;;21.70;51.30;;;;;;352507;28;1243;-52
2023/09/20 00:39:14;;;;;;;4.82;2.50;;;21.70;51.30;;;;;;352444;28;1004;-54
2023/09/20 00:39:25;;;;;;;4.32;2.53;;;21.70;51.30;;;;;;352478;28;1008;-53
2023/09/20 00:39:36;;;;;;;4.25;2.55;;;21.70;51.20;;;;;;352395;28;1222;-53
2023/09/20 00:39:47;;;;;;;3.92;2.60;;;21.70;51.20;;;;;;352501;28;1066;-53
2023/09/20 00:39:57;;;;;;;4.53;2.80;;;21.70;51.20;;;;;;352445;28;1103;-53
2023/09/20 00:40:17;;;;;;;4.50;2.67;;;21.70;51.20;;;;;;352433;28;947;-53
2023/09/20 00:40:28;;;;;;;4.20;2.60;;;21.70;51.20;;;;;;352485;28;979;-53
2023/09/20 00:40:39;;;;;;;5.15;2.70;;;21.70;51.20;;;;;;352366;28;1126;-54
2023/09/20 00:40:50;;;;;;;4.85;2.42;;;21.70;51.20;;;;;;352545;28;917;-53
2023/09/20 00:41:08;;;;;;;6.15;2.58;;;21.70;51.20;;;;;;352479;28;975;-52
2023/09/20 00:41:18;;;;;;;5.35;2.65;;;21.70;51.20;;;;;;352420;28;1189;-53
2023/09/20 00:41:31;;;;;;;5.03;2.60;;;21.70;51.20;;;;;;352498;28;876;-54
2023/09/20 00:41:42;;;;;;;4.70;2.60;;;21.70;51.20;;;;;;352453;27;931;-53
2023/09/20 00:41:53;;;;;;;4.97;2.50;;;21.70;51.20;;;;;;352460;28;948;-54
2023/09/20 00:42:04;;;;;;;4.68;2.40;;;21.70;51.30;;;;;;352529;28;1229;-53
2023/09/20 00:42:15;;;;;;;4.53;2.50;;;21.70;51.30;;;;;;352457;28;1078;-53
2023/09/20 00:42:27;;;;;;;3.60;2.60;;;21.70;51.30;;;;;;352420;28;1573;-53
2023/09/20 00:42:38;;;;;;;3.92;2.53;;;21.70;51.30;;;;;;352498;28;931;-53
2023/09/20 00:42:50;;;;;;;4.13;2.50;;;21.70;51.30;;;;;;352357;28;1103;-53
2023/09/20 00:43:07;;;;;;;5.28;2.50;;;21.70;51.40;;;;;;352556;27;899;-53
2023/09/20 00:43:24;;;;;;;4.97;2.40;;;21.70;51.50;;;;;;352401;28;942;-54
2023/09/20 00:43:35;;;;;;;3.28;2.47;;;21.70;51.50;;;;;;352485;28;1015;-53
2023/09/20 00:43:46;;;;;;;4.22;2.63;;;21.70;51.50;;;;;;352444;28;963;-54
2023/09/20 00:43:58;;;;;;;4.53;2.37;;;21.70;51.60;;;;;;352433;28;1086;-54
2023/09/20 00:44:08;;;;;;;4.78;2.38;;;21.70;51.40;;;;;;352532;28;972;-53
2023/09/20 00:44:19;;;;;;;3.50;2.20;;;21.70;51.30;;;;;;352426;28;1007;-53
2023/09/20 00:44:30;;;;;;;3.97;2.42;;;21.70;51.20;;;;;;352448;28;1094;-53
2023/09/20 00:44:41;;;;;;;6.28;2.67;;;21.70;51.10;;;;;;352436;28;1709;-54
2023/09/20 00:44:52;;;;;;;6.65;2.90;;;21.70;51.10;;;;;;352509;28;1142;-53
2023/09/20 00:45:03;;;;;;;6.83;2.73;;;21.70;51.10;;;;;;352403;28;1031;-53
2023/09/20 00:45:15;;;;;;;5.03;2.63;;;21.70;51.10;;;;;;352472;28;1181;-53
2023/09/20 00:45:26;;;;;;;5.03;2.72;;;21.70;51.10;;;;;;352441;28;1019;-54
2023/09/20 00:45:40;;;;;;;4.65;2.75;;;21.70;51.10;;;;;;352366;28;1854;-54
2023/09/20 00:45:51;;;;;;;4.95;2.47;;;21.70;51.10;;;;;;352429;28;1213;-53
2023/09/20 00:46:04;;;;;;;4.10;2.25;;;21.70;51.10;;;;;;352551;28;951;-53
2023/09/20 00:46:15;;;;;;;3.95;2.40;;;21.70;51.10;;;;;;352397;27;993;-53
2023/09/20 00:46:26;;;;;;;3.67;2.40;;;21.70;51.00;;;;;;352538;28;907;-54
2023/09/20 00:46:38;;;;;;;3.90;2.30;;;21.70;51.00;;;;;;352494;28;1066;-53
2023/09/20 00:46:49;;;;;;;4.98;2.62;;;21.70;51.00;;;;;;352438;28;1049;-53
2023/09/20 00:47:03;;;;;;;6.13;2.80;;;21.70;51.10;;;;;;352469;28;852;-53
2023/09/20 00:47:14;;;;;;;5.88;2.83;;;21.70;51.10;;;;;;352513;28;1098;-53
2023/09/20 00:47:27;;;;;;;5.93;2.55;;;21.70;51.20;;;;;;352450;28;1038;-55
2023/09/20 00:47:40;;;;;;;5.55;2.40;;;21.70;51.30;;;;;;352442;28;1922;-54
2023/09/20 00:47:56;;;;;;;5.00;2.40;;;21.70;51.50;;;;;;352526;28;999;-55
2023/09/20 00:48:09;;;;;;;4.60;2.55;;;21.70;51.50;;;;;;352443;28;1118;-54
2023/09/20 00:48:20;;;;;;;3.50;2.38;;;21.70;51.40;;;;;;352453;28;1097;-55
2023/09/20 00:48:31;;;;;;;3.70;2.30;;;21.70;51.30;;;;;;352546;28;805;-56
2023/09/20 00:48:44;;;;;;;4.45;2.22;;;21.60;51.20;;;;;;352479;28;929;-54
2023/09/20 00:48:56;;;;;;;4.80;2.30;;;21.70;51.20;;;;;;352527;28;1046;-54
2023/09/20 00:49:07;;;;;;;3.42;2.20;;;21.70;51.10;;;;;;352494;28;988;-55
2023/09/20 00:49:19;;;;;;;3.90;2.30;;;21.60;51.10;;;;;;352427;28;1018;-54
2023/09/20 00:49:30;;;;;;;3.92;2.35;;;21.70;51.10;;;;;;352473;28;1114;-54
2023/09/20 00:49:45;;;;;;;4.65;2.65;;;21.70;51.10;;;;;;352442;28;1419;-54
2023/09/20 00:49:57;;;;;;;4.57;2.67;;;21.70;51.10;;;;;;352480;28;992;-55
2023/09/20 00:50:11;;;;;;;5.65;2.63;;;21.70;51.10;;;;;;352537;28;891;-54
2023/09/20 00:50:22;;;;;;;5.05;2.70;;;21.70;51.00;;;;;;352405;28;1118;-55
2023/09/20 00:50:35;;;;;;;3.67;2.58;;;21.70;51.00;;;;;;352427;28;1197;-55
2023/09/20 00:50:48;;;;;;;3.60;2.50;;;21.70;50.90;;;;;;352428;27;1062;-54
2023/09/20 00:50:58;;;;;;;4.18;2.42;;;21.70;50.90;;;;;;352493;28;971;-54
2023/09/20 00:51:09;;;;;;;4.63;2.50;;;21.70;50.90;;;;;;352435;27;1105;-55
2023/09/20 00:51:21;;;;;;;5.38;2.60;;;21.60;50.90;;;;;;352521;28;924;-55
2023/09/20 00:51:33;;;;;;;5.35;2.50;;;21.70;50.80;;;;;;352499;28;911;-55
2023/09/20 00:51:44;;;;;;;4.88;2.25;;;21.70;50.80;;;;;;352509;28;825;-55
2023/09/20 00:51:56;;;;;;;3.83;2.28;;;21.70;50.80;;;;;;352355;28;1562;-55
2023/09/20 00:52:08;;;;;;;3.97;2.35;;;21.70;50.80;;;;;;352461;28;991;-55
2023/09/20 00:52:19;;;;;;;4.45;2.65;;;21.70;50.70;;;;;;352434;28;939;-54
2023/09/20 00:52:29;;;;;;;5.00;2.45;;;21.70;50.70;;;;;;352433;28;1074;-54
2023/09/20 00:52:47;;;;;;;4.38;2.40;;;21.60;50.70;;;;;;352343;28;1596;-54
2023/09/20 00:52:59;;;;;;;4.78;2.50;;;21.70;50.70;;;;;;352494;28;946;-55
2023/09/20 00:53:14;;;;;;;5.28;2.80;;;21.70;50.80;;;;;;352404;28;993;-54
2023/09/20 00:53:25;;;;;;;4.53;2.65;;;21.70;50.80;;;;;;352452;28;1122;-54
2023/09/20 00:53:37;;;;;;;3.85;2.30;;;21.60;50.90;;;;;;352355;28;1042;-54
2023/09/20 00:53:52;;;;;;;4.72;2.30;;;21.60;50.90;;;;;;352458;28;1078;-54
2023/09/20 00:54:04;;;;;;;5.78;2.63;;;21.70;50.90;;;;;;352466;28;959;-56
2023/09/20 00:54:16;;;;;;;6.07;2.78;;;21.60;51.00;;;;;;352504;28;991;-54
2023/09/20 00:54:27;;;;;;;5.60;2.80;;;21.60;51.00;;;;;;352422;28;1047;-54
2023/09/20 00:54:38;;;;;;;3.80;2.50;;;21.70;51.00;;;;;;352392;28;1091;-54
2023/09/20 00:54:49;;;;;;;3.58;2.25;;;21.60;50.90;;;;;;352536;28;832;-54
2023/09/20 00:54:59;;;;;;;3.80;2.20;;;21.70;50.80;;;;;;352429;28;1007;-55
2023/09/20 00:55:15;;;;;;;4.78;2.28;;;21.70;50.80;;;;;;352462;28;1011;-55
2023/09/20 00:55:29;;;;;;;4.90;2.30;;;21.70;50.70;;;;;;352367;28;1042;-55
2023/09/20 00:55:42;;;;;;;4.50;2.30;;;21.70;50.60;;;;;;352514;27;1262;-55
2023/09/20 00:55:54;;;;;;;4.60;2.25;;;21.60;50.60;;;;;;352503;28;967;-55
2023/09/20 00:56:09;;;;;;;5.10;2.13;;;21.70;50.50;;;;;;352560;28;927;-54
2023/09/20 00:56:21;;;;;;;4.18;2.00;;;21.70;50.40;;;;;;352435;28;1249;-55
2023/09/20 00:56:33;;;;;;;2.97;1.77;;;21.60;50.40;;;;;;352458;28;1022;-55
2023/09/20 00:56:44;;;;;;;3.05;1.83;;;21.70;50.40;;;;;;352471;28;1018;-54
2023/09/20 00:56:55;;;;;;;3.20;1.80;;;21.70;50.40;;;;;;352423;28;1451;-54
2023/09/20 00:57:07;;;;;;;4.05;1.88;;;21.70;50.40;;;;;;352417;27;1023;-54
2023/09/20 00:57:19;;;;;;;4.55;2.20;;;21.60;50.40;;;;;;352462;28;943;-55
2023/09/20 00:57:30;;;;;;;4.63;2.20;;;21.70;50.40;;;;;;352463;28;1101;-54
2023/09/20 00:57:45;;;;;;;4.18;2.00;;;21.70;50.30;;;;;;352391;28;1427;-55
2023/09/20 00:58:07;;;;;;;3.58;2.10;;;21.70;50.20;;;;;;352380;28;1892;-54
2023/09/20 00:58:19;;;;;;;3.10;2.08;;;21.70;50.20;;;;;;352441;28;1017;-55
2023/09/20 00:58:32;;;;;;;3.13;1.90;;;21.60;50.20;;;;;;352455;27;1081;-54
2023/09/20 00:58:43;;;;;;;2.90;1.90;;;21.70;50.20;;;;;;352378;28;1125;-53
2023/09/20 00:58:55;;;;;;;2.88;1.90;;;21.70;50.20;;;;;;352527;28;876;-54
2023/09/20 00:59:07;;;;;;;4.72;1.90;;;21.70;50.10;;;;;;352463;28;980;-54
2023/09/20 00:59:18;;;;;;;4.57;1.83;;;21.70;50.10;;;;;;352475;28;1026;-55
2023/09/20 00:59:31;;;;;;;3.38;1.90;;;21.70;50.10;;;;;;352489;28;907;-54
2023/09/20 00:59:42;;;;;;;4.32;2.13;;;21.70;50.10;;;;;;352448;28;982;-53
2023/09/20 00:59:53;;;;;;;4.70;2.15;;;21.70;50.10;;;;;;352535;28;915;-55
2023/09/20 01:00:19;;;;;;;4.70;2.08;;;21.70;50.10;;;;;;352468;28;1133;-54
2023/09/20 01:00:36;;;;;;;3.83;1.85;;;21.70;50.10;;;;;;352388;28;1046;-54
2023/09/20 01:00:51;;;;;;;4.45;2.20;;;21.60;50.00;;;;;;352501;28;1094;-54
2023/09/20 01:01:04;;;;;;;4.07;2.20;;;21.70;50.10;;;;;;352494;28;941;-54
2023/09/20 01:01:15;;;;;;;3.75;2.08;;;21.60;50.20;;;;;;352422;28;1115;-54
2023/09/20 01:01:26;;;;;;;3.35;2.00;;;21.70;50.20;;;;;;352363;28;1214;-54
2023/09/20 01:01:39;;;;;;;3.47;2.00;;;21.70;50.20;;;;;;352542;28;845;-54
2023/09/20 01:01:51;;;;;;;3.53;2.10;;;21.60;50.20;;;;;;352505;28;983;-54
2023/09/20 01:02:03;;;;;;;3.30;1.98;;;21.60;50.20;;;;;;352504;28;900;-54
2023/09/20 01:02:14;;;;;;;3.40;2.00;;;21.60;50.20;;;;;;352365;28;1242;-54
2023/09/20 01:02:27;;;;;;;2.95;1.90;;;21.60;50.20;;;;;;352508;28;888;-54
2023/09/20 01:02:38;;;;;;;2.95;1.90;;;21.70;50.20;;;;;;352542;28;915;-55
2023/09/20 01:02:50;;;;;;;3.67;1.97;;;21.60;50.20;;;;;;352414;28;1154;-54
2023/09/20 01:03:01;;;;;;;3.40;1.88;;;21.70;50.20;;;;;;352429;28;1130;-54
2023/09/20 01:03:18;;;;;;;3.30;1.80;;;21.60;50.20;;;;;;352398;28;1039;-54
2023/09/20 01:03:31;;;;;;;3.20;1.85;;;21.60;50.20;;;;;;352464;28;951;-54
2023/09/20 01:03:43;;;;;;;3.42;1.90;;;21.60;50.10;;;;;;352508;28;979;-54